Time;durP1;ratioP1;P1;durP2;ratioP2;P2;SDS_P1;SDS_P2;PMS_P1;PMS_P2;Temp;Humidity;BMP_temperature;BMP_pressure;BME280_temperature;BME280_humidity;BME280_pressure;Samples;Min_cycle;Max_cycle;Signal;HPM_P1;HPM_P2
2021/07/20 04:40:12;;;;;;;10.43;6.13;;;;;;;15.05;72.73;100186.06;4986584;28;107497;-78
2021/07/20 04:42:40;;;;;;;13.52;6.72;;;;;;;15.14;73.27;100184.03;4987690;28;106502;-76
2021/07/20 04:45:10;;;;;;;10.73;6.75;;;;;;;15.26;73.59;100179.75;4984941;28;106253;-78
2021/07/20 04:47:40;;;;;;;11.70;6.45;;;;;;;15.39;73.51;100176.25;4985127;28;106574;-74
2021/07/20 04:50:08;;;;;;;11.30;6.70;;;;;;;15.52;73.40;100179.00;4984932;28;106551;-74
2021/07/20 04:52:34;;;;;;;9.10;6.05;;;;;;;15.68;73.53;100183.16;4986599;28;105955;-74
2021/07/20 04:55:00;;;;;;;10.40;6.63;;;;;;;15.82;73.38;100184.03;4985970;28;105751;-75
2021/07/20 04:57:26;;;;;;;11.27;6.93;;;;;;;15.98;73.03;100190.88;4984980;28;106594;-75
2021/07/20 04:59:51;;;;;;;13.98;6.38;;;;;;;16.07;72.71;100189.66;4985386;28;106045;-75
2021/07/20 05:02:17;;;;;;;19.02;6.75;;;;;;;16.18;72.72;100193.56;4985912;28;105995;-75
2021/07/20 05:04:44;;;;;;;9.82;5.85;;;;;;;16.27;72.12;100186.13;4985605;28;106243;-73
2021/07/20 05:07:14;;;;;;;9.93;6.22;;;;;;;16.38;72.07;100184.66;4984873;28;106822;-73
2021/07/20 05:09:39;;;;;;;15.15;7.70;;;;;;;16.44;71.50;100191.88;4985080;28;106124;-71
2021/07/20 05:12:06;;;;;;;11.00;5.72;;;;;;;16.53;71.40;100196.00;4985789;28;105791;-72
2021/07/20 05:14:32;;;;;;;8.40;5.60;;;;;;;16.64;71.57;100191.03;4985182;28;105789;-67
2021/07/20 05:16:58;;;;;;;12.85;7.13;;;;;;;16.74;71.21;100197.63;4982036;28;106592;-67
2021/07/20 05:19:24;;;;;;;12.60;5.47;;;;;;;16.83;70.67;100205.47;4984905;28;106078;-69
2021/07/20 05:21:50;;;;;;;12.75;5.88;;;;;;;16.94;70.48;100206.72;4985548;28;106120;-67
2021/07/20 05:24:16;;;;;;;12.25;6.43;;;;;;;17.04;70.80;100217.84;4984977;28;106243;-67
2021/07/20 05:26:45;;;;;;;14.98;6.40;;;;;;;17.13;70.04;100211.19;4984463;28;107003;-69
2021/07/20 05:29:16;;;;;;;11.00;6.28;;;;;;;17.22;70.13;100211.78;4984420;28;105866;-66
2021/07/20 05:31:45;;;;;;;11.48;6.20;;;;;;;17.34;69.69;100212.75;4985372;28;106409;-66
2021/07/20 05:34:13;;;;;;;11.43;6.75;;;;;;;17.49;69.54;100223.25;4984462;28;106353;-68
2021/07/20 05:36:39;;;;;;;13.02;6.90;;;;;;;17.54;69.17;100223.44;4984622;28;105933;-68
2021/07/20 05:39:04;;;;;;;11.57;7.30;;;;;;;17.64;68.95;100216.75;4984184;28;105869;-65
2021/07/20 05:41:30;;;;;;;14.20;6.30;;;;;;;17.69;68.46;100212.38;4985454;28;106358;-65
2021/07/20 05:43:56;;;;;;;15.85;6.85;;;;;;;17.79;68.71;100217.28;4984072;28;105821;-65
2021/07/20 05:46:22;;;;;;;17.48;7.35;;;;;;;17.84;68.40;100222.84;4984250;28;106253;-66
2021/07/20 05:48:49;;;;;;;9.35;5.20;;;;;;;17.91;68.16;100231.75;4984002;28;105858;-66
2021/07/20 05:51:16;;;;;;;10.00;5.63;;;;;;;17.98;67.87;100238.97;4972561;28;105843;-66
2021/07/20 05:53:42;;;;;;;11.60;5.38;;;;;;;18.06;67.81;100236.81;4971293;28;105909;-64
2021/07/20 05:56:08;;;;;;;14.27;6.15;;;;;;;18.14;67.55;100240.28;4969754;28;106191;-65
2021/07/20 05:58:35;;;;;;;13.25;6.43;;;;;;;18.19;67.11;100237.75;4970400;28;106105;-65
2021/07/20 06:01:03;;;;;;;11.00;5.72;;;;;;;18.31;66.94;100244.09;4971668;28;106117;-64
2021/07/20 06:03:30;;;;;;;10.20;6.07;;;;;;;18.40;66.55;100241.97;4970823;28;106130;-63
2021/07/20 06:05:56;;;;;;;10.52;6.30;;;;;;;18.51;66.42;100243.13;4970292;28;105854;-65
2021/07/20 06:08:24;;;;;;;16.40;6.38;;;;;;;18.71;66.26;100248.31;4970456;28;105846;-64
2021/07/20 06:11:02;;;;;;;11.75;5.72;;;;;;;18.89;65.86;100245.66;4971434;28;106167;-64
2021/07/20 06:13:32;;;;;;;13.10;6.00;;;;;;;19.12;65.38;100241.44;4971011;28;106374;-64
2021/07/20 06:15:59;;;;;;;12.77;6.53;;;;;;;19.32;64.72;100243.13;4970097;28;106756;-66
2021/07/20 06:18:25;;;;;;;12.10;5.93;;;;;;;19.42;64.14;100243.38;4970632;28;106517;-67
2021/07/20 06:20:57;;;;;;;10.82;5.75;;;;;;;19.47;63.62;100242.72;4970871;28;105889;-68
2021/07/20 06:23:23;;;;;;;9.73;5.78;;;;;;;19.56;63.61;100244.03;4970710;28;106189;-67
2021/07/20 06:25:51;;;;;;;12.38;6.30;;;;;;;19.69;63.45;100243.03;4964198;28;106114;-67
2021/07/20 06:28:17;;;;;;;10.43;6.03;;;;;;;19.84;63.35;100246.16;4955215;28;106369;-68
2021/07/20 06:30:44;;;;;;;13.05;6.05;;;;;;;19.97;62.67;100247.03;4951483;28;105907;-68
2021/07/20 06:33:12;;;;;;;13.02;6.05;;;;;;;20.04;62.02;100253.16;4951137;28;106179;-67
2021/07/20 06:35:40;;;;;;;10.93;6.07;;;;;;;20.07;61.69;100255.41;4950627;28;107281;-67
2021/07/20 06:38:06;;;;;;;13.25;5.88;;;;;;;20.19;61.31;100256.25;4950319;28;106080;-68
2021/07/20 06:40:32;;;;;;;8.75;5.65;;;;;;;20.39;61.36;100252.41;4951336;28;106061;-68
2021/07/20 06:42:57;;;;;;;15.48;6.20;;;;;;;20.65;61.07;100255.72;4952492;28;106414;-67
2021/07/20 06:45:23;;;;;;;10.55;6.22;;;;;;;20.79;60.26;100251.75;4970095;28;106504;-66
2021/07/20 06:47:50;;;;;;;15.75;6.47;;;;;;;20.88;59.60;100253.00;4970116;28;106299;-68
2021/07/20 06:50:18;;;;;;;12.65;6.72;;;;;;;21.11;60.04;100256.75;4970975;28;105694;-69
2021/07/20 06:52:44;;;;;;;12.55;5.72;;;;;;;21.32;59.16;100262.59;4958688;28;106185;-68
2021/07/20 06:55:10;;;;;;;15.88;5.88;;;;;;;21.53;59.25;100267.41;4955835;28;106417;-67
2021/07/20 06:57:37;;;;;;;11.13;5.25;;;;;;;21.83;58.59;100260.06;4959471;28;106016;-66
2021/07/20 07:00:05;;;;;;;11.18;5.28;;;;;;;22.12;57.68;100260.88;4951243;28;105973;-66
2021/07/20 07:02:30;;;;;;;11.45;5.35;;;;;;;22.43;57.06;100258.66;4949272;28;106142;-67
2021/07/20 07:05:03;;;;;;;8.55;5.32;;;;;;;22.51;55.55;100254.72;4950208;28;105778;-67
2021/07/20 07:07:30;;;;;;;9.95;5.25;;;;;;;22.55;54.69;100248.53;4950285;28;105943;-66
2021/07/20 07:09:58;;;;;;;11.48;5.35;;;;;;;22.56;54.62;100250.19;4969141;28;106029;-67
2021/07/20 07:12:24;;;;;;;7.88;4.90;;;;;;;22.54;54.62;100237.94;4957371;28;106274;-68
2021/07/20 07:14:52;;;;;;;10.27;4.90;;;;;;;22.53;53.81;100244.47;4961958;28;107321;-70
2021/07/20 07:17:18;;;;;;;9.82;5.18;;;;;;;22.57;54.42;100235.56;4957138;28;106199;-70
2021/07/20 07:19:48;;;;;;;9.18;5.05;;;;;;;22.83;54.39;100244.06;4959299;28;106094;-67
2021/07/20 07:22:16;;;;;;;11.50;5.35;;;;;;;23.15;53.69;100248.84;4966443;28;106098;-67
2021/07/20 07:24:44;;;;;;;8.90;4.70;;;;;;;23.13;52.36;100251.84;4957883;28;106095;-69
2021/07/20 07:27:12;;;;;;;8.90;4.43;;;;;;;23.13;52.21;100246.41;4969448;28;105899;-69
2021/07/20 07:29:38;;;;;;;8.52;4.72;;;;;;;23.25;51.69;100246.28;4969688;28;106152;-71
2021/07/20 07:32:04;;;;;;;8.07;4.25;;;;;;;23.28;51.26;100253.91;4950405;28;106870;-69
2021/07/20 07:34:29;;;;;;;8.52;4.38;;;;;;;23.37;51.06;100250.75;4949677;28;106619;-70
2021/07/20 07:36:58;;;;;;;8.52;4.32;;;;;;;23.50;51.43;100244.94;4949494;28;106288;-74
2021/07/20 07:39:25;;;;;;;10.40;4.25;;;;;;;23.72;50.86;100253.03;4949579;28;106114;-68
2021/07/20 07:41:53;;;;;;;7.05;3.90;;;;;;;23.85;50.31;100257.25;4949871;28;106375;-70
2021/07/20 07:44:20;;;;;;;9.52;4.38;;;;;;;24.07;49.65;100259.94;4968296;28;106497;-73
2021/07/20 07:46:48;;;;;;;12.50;4.30;;;;;;;24.33;49.25;100263.69;4968910;28;105916;-72
2021/07/20 07:49:15;;;;;;;11.73;5.25;;;;;;;24.57;48.48;100262.50;4969636;28;106340;-75
2021/07/20 07:51:43;;;;;;;10.30;3.88;;;;;;;24.58;47.00;100254.06;4969276;28;106273;-68
2021/07/20 07:54:09;;;;;;;9.93;3.90;;;;;;;24.54;47.09;100258.41;4968318;28;106082;-69
2021/07/20 07:56:36;;;;;;;6.30;3.28;;;;;;;24.74;47.35;100248.75;4965287;28;106119;-74
2021/07/20 07:59:02;;;;;;;6.03;3.53;;;;;;;24.98;46.89;100257.31;4968361;28;106222;-74
2021/07/20 08:01:30;;;;;;;8.00;3.42;;;;;;;25.22;46.57;100252.25;4967780;28;106432;-72
2021/07/20 08:03:57;;;;;;;7.43;3.85;;;;;;;25.48;45.79;100244.22;4969209;28;105857;-69
2021/07/20 08:06:26;;;;;;;7.15;3.45;;;;;;;25.36;44.87;100247.16;4968763;28;106672;-66
2021/07/20 08:08:55;;;;;;;10.13;3.75;;;;;;;25.29;44.62;100241.91;4965816;28;106105;-67
2021/07/20 08:11:22;;;;;;;7.40;3.75;;;;;;;25.37;44.75;100248.81;4967310;28;105922;-66
2021/07/20 08:13:48;;;;;;;7.63;3.60;;;;;;;25.72;44.55;100243.69;4966742;28;106927;-67
2021/07/20 08:16:15;;;;;;;11.15;4.05;;;;;;;26.18;43.55;100246.50;4965621;28;106368;-67
2021/07/20 08:18:43;;;;;;;7.57;3.28;;;;;;;26.64;42.84;100235.53;4967877;28;106363;-68
2021/07/20 08:21:08;;;;;;;7.47;3.22;;;;;;;26.95;41.50;100245.56;4967297;28;106603;-69
2021/07/20 08:23:36;;;;;;;6.13;3.35;;;;;;;27.07;40.42;100245.28;4967314;28;106002;-67
2021/07/20 08:26:13;;;;;;;7.80;3.38;;;;;;;27.07;39.88;100242.53;4967266;28;106061;-69
2021/07/20 08:28:45;;;;;;;8.27;4.55;;;;;;;27.09;39.83;100240.31;4967807;28;105969;-70
2021/07/20 08:31:13;;;;;;;8.20;3.83;;;;;;;27.15;39.69;100241.97;4966667;28;106192;-67
2021/07/20 08:33:39;;;;;;;8.93;4.40;;;;;;;27.36;39.94;100248.16;4967340;28;106133;-69
2021/07/20 08:36:08;;;;;;;7.53;3.50;;;;;;;27.86;39.49;100245.41;4967055;28;106104;-71
2021/07/20 08:38:35;;;;;;;6.13;3.05;;;;;;;27.93;38.46;100245.91;4966920;28;106354;-68
2021/07/20 08:41:09;;;;;;;6.25;3.28;;;;;;;27.96;38.09;100245.31;4952676;28;106216;-67
2021/07/20 08:43:49;;;;;;;6.53;2.88;;;;;;;27.96;37.76;100248.06;4953761;28;106366;-68
2021/07/20 08:46:41;;;;;;;6.85;2.70;;;;;;;27.77;37.39;100250.66;4966756;28;106046;-71
2021/07/20 08:49:33;;;;;;;5.40;3.08;;;;;;;27.72;37.68;100253.44;4967154;28;106046;-69
2021/07/20 08:52:17;;;;;;;7.20;3.65;;;;;;;27.73;37.32;100251.53;4965138;28;106047;-75
2021/07/20 08:54:45;;;;;;;7.75;3.45;;;;;;;27.90;37.33;100251.13;4965866;28;106514;-69
2021/07/20 08:57:13;;;;;;;6.57;3.60;;;;;;;28.05;36.65;100248.31;4965782;28;106856;-67
2021/07/20 08:59:47;;;;;;;7.20;3.92;;;;;;;28.28;36.82;100256.88;4967656;28;106858;-69
2021/07/20 09:02:15;;;;;;;8.15;4.28;;;;;;;28.62;36.47;100245.84;4966827;28;105893;-69
2021/07/20 09:04:45;;;;;;;9.65;4.13;;;;;;;28.73;36.11;100248.53;4966694;28;106120;-69
2021/07/20 09:07:14;;;;;;;8.60;4.00;;;;;;;29.00;35.73;100245.19;4966384;28;106369;-70
2021/07/20 09:09:44;;;;;;;8.90;3.90;;;;;;;28.97;35.25;100249.34;4959645;28;106243;-70
2021/07/20 09:12:12;;;;;;;;;;;;;;;28.84;35.47;100241.81;4952380;28;106028;-68
2021/07/20 09:14:52;;;;;;;5.70;3.75;;;;;;;29.03;35.36;100248.19;4958613;28;105824;-68
2021/07/20 09:17:21;;;;;;;6.63;3.38;;;;;;;29.15;34.99;100234.03;4957183;28;106278;-68
2021/07/20 09:19:58;;;;;;;8.75;4.95;;;;;;;29.12;34.53;100237.38;4956922;28;106164;-69
2021/07/20 09:22:33;;;;;;;9.73;4.07;;;;;;;28.95;34.00;100237.88;4956213;28;105990;-69
2021/07/20 09:25:06;;;;;;;7.07;3.55;;;;;;;28.70;34.14;100230.75;4955360;28;106766;-70
2021/07/20 09:27:42;;;;;;;6.05;4.15;;;;;;;28.47;34.38;100233.16;4957286;28;106035;-71
2021/07/20 09:30:14;;;;;;;7.20;4.00;;;;;;;28.27;34.20;100220.47;4958355;28;106391;-71
2021/07/20 09:32:46;;;;;;;7.00;3.55;;;;;;;28.10;34.07;100229.09;4959095;28;106250;-71
2021/07/20 09:35:48;;;;;;;9.77;4.50;;;;;;;28.09;34.40;100232.94;4950992;28;106078;-69
2021/07/20 09:38:58;;;;;;;9.55;3.88;;;;;;;28.35;34.34;100230.78;4948645;28;106259;-68
2021/07/20 09:41:35;;;;;;;7.35;3.75;;;;;;;28.31;34.02;100240.69;4952424;28;106308;-74
2021/07/20 09:44:21;;;;;;;7.97;4.25;;;;;;;27.99;34.37;100232.97;4970465;28;105958;-71
2021/07/20 09:47:18;;;;;;;7.78;3.70;;;;;;;27.69;35.02;100227.47;4970587;28;105871;-77
2021/07/20 09:50:01;;;;;;;8.40;3.78;;;;;;;27.31;35.33;100229.00;4964831;28;105929;-72
2021/07/20 09:52:36;;;;;;;6.82;3.78;;;;;;;27.30;35.98;100232.88;4951864;28;106608;-71
2021/07/20 09:55:13;;;;;;;7.35;3.38;;;;;;;27.58;35.40;100225.88;4950385;28;106127;-73
2021/07/20 09:57:38;;;;;;;6.32;3.42;;;;;;;27.89;34.64;100228.41;4958254;28;106685;-73
2021/07/20 10:00:29;;;;;;;7.20;3.65;;;;;;;28.08;34.95;100222.28;4970228;28;105893;-74
2021/07/20 10:03:08;;;;;;;6.18;3.92;;;;;;;28.33;34.65;100219.28;4970140;28;106385;-75
2021/07/20 10:05:57;;;;;;;6.30;3.53;;;;;;;28.43;34.76;100225.78;4970695;28;106009;-74
2021/07/20 10:08:38;;;;;;;7.05;3.92;;;;;;;28.53;34.44;100226.50;4968218;28;106323;-74
2021/07/20 10:11:44;;;;;;;12.02;3.50;;;;;;;28.41;34.79;100222.53;4970077;28;106153;-74
2021/07/20 10:14:48;;;;;;;5.32;3.20;;;;;;;28.07;35.01;100228.84;4968269;28;106457;-75
2021/07/20 10:17:16;;;;;;;5.13;3.80;;;;;;;27.73;35.74;100224.16;4939088;28;106197;-75
2021/07/20 10:19:51;;;;;;;8.90;3.38;;;;;;;27.28;35.94;100227.66;4969983;28;106554;-75
2021/07/20 10:22:36;;;;;;;7.22;3.55;;;;;;;26.83;36.50;100215.81;4969926;28;106062;-75
2021/07/20 10:25:12;;;;;;;6.07;3.47;;;;;;;26.17;37.24;100225.75;4970789;28;106444;-74
2021/07/20 10:27:54;;;;;;;5.65;3.60;;;;;;;25.78;38.63;100220.78;4970233;28;106036;-73
2021/07/20 10:30:22;;;;;;;6.07;3.75;;;;;;;25.36;38.94;100219.91;4970104;28;106113;-77
2021/07/20 10:33:05;;;;;;;7.03;3.58;;;;;;;24.94;39.64;100220.78;4969559;28;105935;-72
2021/07/20 10:35:39;;;;;;;6.72;3.58;;;;;;;24.61;40.56;100223.59;4970681;28;106036;-71
2021/07/20 10:38:10;;;;;;;6.80;3.47;;;;;;;24.43;41.10;100227.56;4968752;28;106999;-73
2021/07/20 10:40:36;;;;;;;5.68;3.22;;;;;;;24.20;41.10;100231.47;4969555;28;106689;-75
2021/07/20 10:43:17;;;;;;;6.32;3.47;;;;;;;23.96;41.56;100226.38;4967683;28;106312;-76
2021/07/20 10:45:46;;;;;;;5.38;3.33;;;;;;;23.81;41.58;100231.63;4970255;28;105947;-83
2021/07/20 10:48:17;;;;;;;6.20;3.03;;;;;;;23.79;41.37;100231.06;4969580;28;106143;-75
2021/07/20 10:51:03;;;;;;;4.65;3.28;;;;;;;23.74;41.64;100233.75;4969192;28;106301;-73
2021/07/20 10:53:59;;;;;;;6.53;3.42;;;;;;;23.77;41.45;100238.66;4969373;28;106045;-73
2021/07/20 10:56:50;;;;;;;6.72;3.50;;;;;;;23.73;41.32;100234.81;4970365;28;106022;-72
2021/07/20 10:59:18;;;;;;;6.65;3.55;;;;;;;23.67;41.47;100233.94;4969848;28;106138;-72
2021/07/20 11:01:52;;;;;;;5.47;3.15;;;;;;;23.75;41.29;100229.94;4969950;28;106051;-70
2021/07/20 11:04:46;;;;;;;5.90;3.60;;;;;;;23.70;41.26;100238.06;4969564;28;105941;-71
2021/07/20 11:07:16;;;;;;;8.50;3.65;;;;;;;23.65;41.70;100231.50;4970462;28;105889;-70
2021/07/20 11:09:42;;;;;;;7.68;4.03;;;;;;;23.55;41.39;100228.69;4969505;28;106016;-70
2021/07/20 11:12:09;;;;;;;6.85;4.03;;;;;;;23.37;41.60;100229.00;4969586;28;105967;-70
2021/07/20 11:14:46;;;;;;;8.05;3.75;;;;;;;23.18;41.48;100226.59;4968837;28;106876;-71
2021/07/20 11:17:13;;;;;;;7.25;3.35;;;;;;;23.04;41.83;100228.03;4969968;28;105896;-72
2021/07/20 11:19:40;;;;;;;5.55;3.63;;;;;;;23.07;42.22;100222.09;4967700;28;106171;-74
2021/07/20 11:22:06;;;;;;;9.48;4.35;;;;;;;23.11;42.10;100221.34;4968584;28;105830;-70
2021/07/20 11:24:33;;;;;;;8.05;3.60;;;;;;;23.19;42.13;100217.38;4968664;28;105885;-72
2021/07/20 11:27:01;;;;;;;7.57;3.40;;;;;;;23.26;42.05;100217.19;4967977;28;105982;-71
2021/07/20 11:29:29;;;;;;;8.52;3.40;;;;;;;23.19;42.46;100216.56;4968329;28;106202;-70
2021/07/20 11:31:58;;;;;;;6.82;3.60;;;;;;;23.30;42.75;100224.56;4968628;28;106622;-71
2021/07/20 11:34:38;;;;;;;7.47;3.28;;;;;;;23.45;42.53;100221.22;4968009;28;106175;-71
2021/07/20 11:37:12;;;;;;;89.88;42.67;;;;;;;23.50;42.27;100228.63;4969280;28;105967;-73
2021/07/20 11:39:46;;;;;;;25.05;11.73;;;;;;;23.59;42.34;100215.38;4967755;28;105867;-70
2021/07/20 11:42:27;;;;;;;7.15;3.60;;;;;;;23.69;42.74;100220.09;4968575;28;105970;-70
2021/07/20 11:44:56;;;;;;;23.88;9.23;;;;;;;23.91;42.44;100226.31;4968327;28;106277;-73
2021/07/20 11:47:40;;;;;;;7.18;3.33;;;;;;;24.09;42.06;100219.69;4969228;28;105902;-70
2021/07/20 11:50:13;;;;;;;5.85;3.30;;;;;;;24.28;41.53;100217.38;4968442;28;106469;-72
2021/07/20 11:52:47;;;;;;;5.25;3.50;;;;;;;24.35;41.20;100210.91;4965356;28;106012;-71
2021/07/20 11:55:34;;;;;;;5.63;3.05;;;;;;;24.54;40.96;100214.81;4968498;28;105816;-70
2021/07/20 11:58:21;;;;;;;4.70;3.40;;;;;;;24.76;40.79;100208.44;4969316;28;106096;-71
2021/07/20 12:01:17;;;;;;;5.82;3.47;;;;;;;24.99;39.91;100210.72;4968279;28;106274;-71
2021/07/20 12:04:01;;;;;;;6.45;3.65;;;;;;;25.11;39.54;100204.22;4968683;28;106073;-72
2021/07/20 12:06:31;;;;;;;5.50;3.25;;;;;;;25.17;38.58;100203.97;4968383;28;106481;-70
2021/07/20 12:09:05;;;;;;;8.90;3.67;;;;;;;25.31;38.18;100207.00;4969034;28;106310;-73
2021/07/20 12:11:35;;;;;;;7.80;3.50;;;;;;;25.47;38.23;100209.84;4968269;28;106405;-72
2021/07/20 12:14:05;;;;;;;6.93;3.80;;;;;;;25.41;37.97;100205.44;4967725;28;107842;-72
2021/07/20 12:16:31;;;;;;;;;;;;;;;25.28;37.62;100202.09;4968330;28;106349;-71
2021/07/20 12:18:58;;;;;;;7.90;3.28;;;;;;;25.05;37.43;100202.59;4969364;28;105867;-73
2021/07/20 12:21:26;;;;;;;20.27;4.13;;;;;;;24.93;37.30;100200.91;4967923;28;106285;-72
2021/07/20 12:23:57;;;;;;;9.68;3.28;;;;;;;24.90;37.54;100204.16;4967977;28;105975;-72
2021/07/20 12:26:25;;;;;;;6.00;3.17;;;;;;;24.86;37.63;100205.75;4967946;28;105841;-70
2021/07/20 12:28:53;;;;;;;7.65;3.10;;;;;;;24.92;38.01;100210.16;4968544;28;105926;-73
2021/07/20 12:31:19;;;;;;;6.70;3.20;;;;;;;24.84;38.26;100199.78;4968361;28;106161;-73
2021/07/20 12:33:48;;;;;;;7.43;3.20;;;;;;;25.00;38.42;100206.94;4967756;28;105894;-71
2021/07/20 12:36:14;;;;;;;8.80;3.83;;;;;;;25.25;38.40;100202.66;4956558;28;105819;-72
2021/07/20 12:38:41;;;;;;;8.52;4.28;;;;;;;25.34;37.93;100209.25;4948394;28;107635;-71
2021/07/20 12:41:12;;;;;;;7.93;4.03;;;;;;;25.45;38.03;100207.38;4948846;28;105843;-72
2021/07/20 12:43:42;;;;;;;13.90;4.82;;;;;;;25.71;37.96;100207.41;4955572;28;106189;-71
2021/07/20 12:46:10;;;;;;;12.25;5.10;;;;;;;25.88;37.56;100198.97;4967999;28;106449;-71
2021/07/20 12:48:51;;;;;;;8.50;4.03;;;;;;;26.10;36.79;100203.38;4968407;28;106041;-71
2021/07/20 12:51:19;;;;;;;10.23;3.28;;;;;;;26.15;36.50;100204.19;4967882;28;105887;-70
2021/07/20 12:53:47;;;;;;;6.05;3.30;;;;;;;26.18;36.26;100208.28;4967619;28;106247;-70
2021/07/20 12:56:18;;;;;;;6.45;3.50;;;;;;;26.12;36.40;100210.19;4967672;28;105850;-71
2021/07/20 12:58:44;;;;;;;9.13;3.25;;;;;;;26.06;36.67;100211.28;4968113;28;106135;-70
2021/07/20 13:01:13;;;;;;;9.55;3.65;;;;;;;25.94;37.02;100211.50;4962299;28;106196;-73
2021/07/20 13:03:44;;;;;;;8.30;3.05;;;;;;;25.85;37.29;100216.69;4959280;28;108167;-72
2021/07/20 13:06:18;;;;;;;7.60;3.30;;;;;;;25.80;37.15;100213.16;4969783;28;106375;-78
2021/07/20 13:08:45;;;;;;;5.70;3.00;;;;;;;25.76;37.38;100206.59;4968854;28;106780;-75
2021/07/20 13:11:11;;;;;;;10.80;3.38;;;;;;;25.78;37.43;100209.88;4969856;28;106349;-78
2021/07/20 13:13:37;;;;;;;6.43;3.22;;;;;;;25.59;37.20;100207.69;4969325;28;106511;-79
2021/07/20 13:16:04;;;;;;;6.75;3.03;;;;;;;25.37;37.24;100212.53;4969446;28;106028;-76
2021/07/20 13:18:30;;;;;;;6.93;3.10;;;;;;;25.27;37.73;100210.56;4970039;28;106580;-73
2021/07/20 13:21:00;;;;;;;6.47;3.35;;;;;;;25.25;37.86;100208.09;4968545;28;106580;-76
2021/07/20 13:23:31;;;;;;;4.95;3.00;;;;;;;25.22;37.33;100210.53;4969049;28;105872;-70
2021/07/20 13:25:56;;;;;;;4.53;2.70;;;;;;;25.23;37.49;100207.53;4969582;28;106075;-69
2021/07/20 13:28:26;;;;;;;4.90;2.90;;;;;;;25.35;37.09;100204.63;4970468;28;106019;-69
2021/07/20 13:31:07;;;;;;;5.00;2.58;;;;;;;25.50;37.03;100201.09;4968663;28;106421;-72
2021/07/20 13:33:33;;;;;;;5.95;2.95;;;;;;;25.67;36.70;100203.56;4969717;28;106080;-68
2021/07/20 13:35:59;;;;;;;11.13;3.38;;;;;;;25.98;36.55;100209.06;4969108;28;106655;-70
2021/07/20 13:38:34;;;;;;;7.45;3.67;;;;;;;26.10;36.21;100196.00;4969682;28;106195;-68
2021/07/20 13:41:02;;;;;;;8.40;3.50;;;;;;;26.23;36.14;100193.78;4969413;28;106196;-68
2021/07/20 13:43:29;;;;;;;8.32;3.15;;;;;;;26.18;36.20;100203.63;4969018;28;105974;-68
2021/07/20 13:45:57;;;;;;;6.05;3.17;;;;;;;26.11;36.53;100199.56;4957810;28;106197;-69
2021/07/20 13:48:24;;;;;;;7.55;3.38;;;;;;;25.92;36.70;100200.06;4954131;28;107128;-71
2021/07/20 13:50:52;;;;;;;8.23;3.53;;;;;;;26.01;37.35;100208.50;4951271;28;106181;-70
2021/07/20 13:53:30;;;;;;;7.47;3.53;;;;;;;26.04;37.12;100205.28;4951053;28;106331;-74
2021/07/20 13:56:20;;;;;;;6.50;3.50;;;;;;;25.88;37.56;100212.63;4951111;28;105961;-73
2021/07/20 13:58:47;;;;;;;7.00;3.22;;;;;;;25.85;37.83;100211.25;4951992;28;105948;-69
2021/07/20 14:01:14;;;;;;;8.45;3.30;;;;;;;25.77;37.75;100214.50;4950920;28;106185;-69
2021/07/20 14:03:40;;;;;;;7.95;3.50;;;;;;;25.64;37.96;100213.16;4951195;28;106518;-73
2021/07/20 14:06:08;;;;;;;9.57;3.60;;;;;;;25.74;38.17;100214.22;4950706;28;106048;-74
2021/07/20 14:08:33;;;;;;;5.75;3.50;;;;;;;25.66;37.78;100218.31;4952099;28;106161;-70
2021/07/20 14:10:59;;;;;;;7.30;3.08;;;;;;;25.59;37.87;100221.31;4950828;28;106278;-72
2021/07/20 14:13:27;;;;;;;9.57;3.72;;;;;;;25.47;37.89;100221.56;4950750;28;105787;-71
2021/07/20 14:15:53;;;;;;;8.10;3.58;;;;;;;25.43;37.83;100215.00;4950498;28;106089;-72
2021/07/20 14:18:21;;;;;;;8.55;3.38;;;;;;;25.30;37.24;100221.75;4951653;28;105951;-70
2021/07/20 14:20:47;;;;;;;6.47;3.58;;;;;;;25.27;37.41;100222.28;4950925;28;105948;-71
2021/07/20 14:23:13;;;;;;;9.18;3.50;;;;;;;25.28;37.25;100217.66;4950437;28;106040;-69
2021/07/20 14:26:09;;;;;;;6.80;2.92;;;;;;;25.28;37.15;100217.66;4952501;28;106033;-70
2021/07/20 14:28:35;;;;;;;4.82;2.70;;;;;;;25.07;37.22;100209.41;4969011;28;106032;-70
2021/07/20 14:31:02;;;;;;;8.65;3.50;;;;;;;24.85;37.38;100215.03;4968628;28;106296;-70
2021/07/20 14:33:27;;;;;;;7.25;2.97;;;;;;;24.72;37.63;100220.97;4968126;28;107314;-72
2021/07/20 14:35:53;;;;;;;7.15;3.28;;;;;;;24.65;37.66;100219.28;4968378;28;106420;-71
2021/07/20 14:38:38;;;;;;;5.28;3.17;;;;;;;24.53;37.65;100218.63;4967970;28;106305;-71
2021/07/20 14:41:10;;;;;;;6.03;3.13;;;;;;;24.47;37.62;100223.22;4968418;28;106286;-71
2021/07/20 14:43:41;;;;;;;7.72;3.33;;;;;;;24.46;37.58;100210.69;4966181;28;106377;-71
2021/07/20 14:46:08;;;;;;;7.40;2.95;;;;;;;24.49;37.68;100214.78;4967446;28;106513;-69
2021/07/20 14:48:33;;;;;;;9.98;3.67;;;;;;;24.51;37.59;100215.34;4958343;28;106566;-70
2021/07/20 14:51:03;;;;;;;7.93;3.38;;;;;;;24.53;37.64;100224.06;4975001;28;106211;-69
2021/07/20 14:53:29;;;;;;;7.43;3.50;;;;;;;24.51;37.41;100215.34;4978478;28;106617;-70
2021/07/20 14:56:12;;;;;;;7.38;3.50;;;;;;;24.54;37.32;100216.75;4981250;28;106993;-68
2021/07/20 14:58:38;;;;;;;6.65;3.78;;;;;;;24.57;37.57;100214.28;4957344;28;105776;-69
2021/07/20 15:01:05;;;;;;;6.53;3.22;;;;;;;24.57;37.21;100219.75;4979355;28;106702;-70
2021/07/20 15:03:39;;;;;;;6.78;3.30;;;;;;;24.55;37.26;100219.19;4974384;28;106180;-71
2021/07/20 15:06:20;;;;;;;6.47;3.55;;;;;;;24.44;37.39;100220.19;4971744;28;106973;-71
2021/07/20 15:08:52;;;;;;;8.60;3.30;;;;;;;24.39;37.37;100212.00;4959729;28;106044;-69
2021/07/20 15:11:33;;;;;;;9.52;3.25;;;;;;;24.40;37.85;100213.63;4979910;28;105940;-70
2021/07/20 15:14:02;;;;;;;7.55;3.20;;;;;;;24.38;37.68;100210.38;4983909;28;106050;-71
2021/07/20 15:16:32;;;;;;;6.07;3.28;;;;;;;24.29;37.70;100213.56;4971986;28;106005;-70
2021/07/20 15:19:09;;;;;;;5.68;3.35;;;;;;;24.28;38.30;100217.38;4983714;28;106200;-70
2021/07/20 15:21:41;;;;;;;7.30;3.38;;;;;;;24.23;38.23;100217.31;4980090;28;106081;-69
2021/07/20 15:24:19;;;;;;;7.40;3.88;;;;;;;24.16;38.39;100208.56;4972064;28;105858;-69
2021/07/20 15:26:50;;;;;;;7.07;3.03;;;;;;;24.07;38.72;100204.69;4957928;28;106100;-74
2021/07/20 15:29:17;;;;;;;6.57;3.53;;;;;;;24.01;38.85;100214.72;4980739;28;105895;-76
2021/07/20 15:31:44;;;;;;;10.68;5.50;;;;;;;24.01;38.79;100217.44;4981397;28;106026;-73
2021/07/20 15:34:09;;;;;;;4.63;2.72;;;;;;;24.10;38.44;100204.19;4972345;28;105799;-76
2021/07/20 15:36:36;;;;;;;6.35;3.20;;;;;;;24.09;38.50;100210.69;4984886;28;106016;-73
2021/07/20 15:39:07;;;;;;;4.90;2.92;;;;;;;24.01;38.79;100216.63;4975879;28;107069;-69
2021/07/20 15:41:34;;;;;;;5.13;3.65;;;;;;;24.01;38.68;100205.75;4989075;28;106151;-72
2021/07/20 15:43:59;;;;;;;6.90;3.80;;;;;;;24.06;38.96;100205.75;4989066;28;106298;-71
2021/07/20 15:46:25;;;;;;;10.52;3.42;;;;;;;24.07;38.84;100204.69;4988404;28;106130;-72
2021/07/20 15:48:51;;;;;;;7.55;3.78;;;;;;;24.06;38.71;100203.03;4989610;28;106054;-71
2021/07/20 15:51:21;;;;;;;7.65;3.22;;;;;;;24.07;38.94;100201.97;4985540;28;106236;-69
2021/07/20 15:53:47;;;;;;;7.65;3.78;;;;;;;24.00;38.74;100210.34;4965828;28;107918;-72
2021/07/20 15:56:14;;;;;;;9.02;3.97;;;;;;;23.97;38.23;100213.59;4968472;28;106093;-68
2021/07/20 15:58:40;;;;;;;6.53;3.65;;;;;;;23.97;38.29;100205.41;4969661;28;106352;-68
2021/07/20 16:01:08;;;;;;;7.10;3.20;;;;;;;23.94;38.05;100206.75;4958686;28;106698;-71
2021/07/20 16:03:35;;;;;;;5.03;2.75;;;;;;;23.93;37.94;100207.81;4948830;28;105960;-68
2021/07/20 16:06:03;;;;;;;4.95;3.15;;;;;;;23.85;38.14;100213.72;4949271;28;105876;-70
2021/07/20 16:08:30;;;;;;;8.10;3.17;;;;;;;23.79;38.20;100209.31;4949761;28;105944;-68
2021/07/20 16:10:57;;;;;;;5.95;3.72;;;;;;;23.65;38.00;100212.44;4951885;28;106323;-68